createdAt,value
2017-08-22T00:01:08.199Z,65.65
2017-08-22T00:03:40.390Z,66.36
2017-08-22T00:06:07.815Z,66.33
2017-08-22T00:08:35.207Z,66.58
2017-08-22T00:11:02.812Z,66.88
2017-08-22T00:13:30.203Z,66.92
2017-08-22T00:15:57.591Z,67.03
2017-08-22T00:18:24.994Z,66.18
2017-08-22T00:20:52.378Z,66.15
2017-08-22T00:23:19.774Z,66.51
2017-08-22T00:25:47.162Z,66.00
2017-08-22T00:28:14.563Z,66.03
2017-08-22T00:30:41.946Z,65.69
2017-08-22T00:33:09.339Z,65.77
2017-08-22T00:35:36.726Z,65.41
2017-08-22T00:38:04.131Z,65.10
2017-08-22T00:40:31.515Z,65.20
2017-08-22T00:42:58.915Z,65.21
2017-08-22T00:45:26.306Z,65.30
2017-08-22T00:47:53.691Z,65.49
2017-08-22T00:50:21.083Z,65.39
2017-08-22T00:52:48.483Z,66.24
2017-08-22T00:55:15.883Z,66.05
2017-08-22T00:57:43.263Z,66.02
2017-08-22T01:00:10.657Z,65.82
2017-08-22T01:02:38.042Z,65.38
2017-08-22T01:05:05.442Z,65.30
2017-08-22T01:07:32.822Z,66.33
2017-08-22T01:10:00.227Z,66.54
2017-08-22T01:12:27.616Z,67.59
2017-08-22T01:14:55.023Z,67.57
2017-08-22T01:17:22.407Z,67.71
2017-08-22T01:19:50.015Z,67.82
2017-08-22T01:22:17.424Z,67.31
2017-08-22T01:24:44.840Z,67.32
2017-08-22T01:27:12.227Z,67.61
2017-08-22T01:29:39.612Z,68.02
2017-08-22T01:32:07.011Z,68.51
2017-08-22T01:34:34.401Z,68.11
2017-08-22T01:37:01.791Z,68.47
2017-08-22T01:39:29.195Z,68.47
2017-08-22T01:41:56.589Z,68.30
2017-08-22T01:44:24.186Z,68.32
2017-08-22T01:46:51.587Z,67.94
2017-08-22T01:49:18.967Z,68.15
2017-08-22T01:51:46.362Z,68.37
2017-08-22T01:54:13.751Z,67.93
2017-08-22T01:56:41.138Z,67.54
2017-08-22T01:59:08.522Z,67.33
2017-08-22T02:01:36.016Z,67.37
2017-08-22T02:04:03.382Z,66.64
2017-08-22T02:06:30.775Z,66.93
2017-08-22T02:08:58.172Z,66.67
2017-08-22T02:11:25.555Z,66.64
2017-08-22T02:13:52.954Z,66.63
2017-08-22T02:16:20.347Z,65.93
2017-08-22T02:18:47.747Z,65.84
2017-08-22T02:21:15.143Z,66.01
2017-08-22T02:23:42.546Z,65.89
2017-08-22T02:26:09.943Z,65.90
2017-08-22T02:28:37.344Z,65.99
2017-08-22T02:31:04.735Z,65.62
2017-08-22T02:33:32.134Z,66.86
2017-08-22T02:35:59.514Z,67.10
2017-08-22T02:38:26.926Z,68.03
2017-08-22T02:40:54.307Z,67.88
2017-08-22T02:43:21.710Z,66.93
2017-08-22T02:45:49.094Z,66.98
2017-08-22T02:48:16.500Z,67.21
2017-08-22T02:50:43.882Z,66.83
2017-08-22T02:53:11.277Z,66.75
2017-08-22T02:55:38.667Z,67.24
2017-08-22T02:58:06.054Z,66.98
2017-08-22T03:00:33.455Z,66.68
2017-08-22T03:03:00.843Z,66.67
2017-08-22T03:05:28.234Z,67.10
2017-08-22T03:07:55.635Z,67.14
2017-08-22T03:10:23.027Z,67.25
2017-08-22T03:12:50.420Z,66.59
2017-08-22T03:15:17.818Z,67.62
2017-08-22T03:17:45.203Z,68.61
2017-08-22T03:20:12.619Z,68.33
2017-08-22T03:22:40.010Z,68.97
2017-08-22T03:25:07.398Z,68.92
2017-08-22T03:27:34.799Z,69.03
2017-08-22T03:30:02.192Z,69.13
2017-08-22T03:32:29.587Z,69.38
2017-08-22T03:34:56.992Z,69.08
2017-08-22T03:37:24.396Z,68.99
2017-08-22T03:39:51.791Z,68.69
2017-08-22T03:42:19.206Z,68.39
2017-08-22T03:44:46.596Z,68.40
2017-08-22T03:47:13.989Z,68.00
2017-08-22T03:49:41.375Z,67.53
2017-08-22T03:52:08.779Z,67.99
2017-08-22T03:54:36.171Z,67.80
2017-08-22T03:57:03.783Z,67.18
2017-08-22T03:59:31.175Z,67.55
2017-08-22T04:01:58.567Z,67.24
2017-08-22T04:04:25.955Z,67.47
2017-08-22T04:06:53.366Z,67.48
2017-08-22T04:09:20.793Z,67.20
2017-08-22T04:11:48.184Z,66.91
2017-08-22T04:14:15.585Z,66.40
2017-08-22T04:16:42.979Z,66.19
2017-08-22T04:19:10.376Z,66.24
2017-08-22T04:21:37.788Z,66.44
2017-08-22T04:24:05.185Z,66.15
2017-08-22T04:26:32.608Z,66.49
2017-08-22T04:29:00.007Z,65.83
2017-08-22T04:31:27.406Z,65.08
2017-08-22T04:33:54.794Z,64.96
2017-08-22T04:36:22.222Z,64.85
2017-08-22T04:38:49.618Z,64.58
2017-08-22T04:41:17.007Z,65.23
2017-08-22T04:43:44.424Z,65.22
2017-08-22T04:46:11.815Z,65.62
2017-08-22T04:48:39.211Z,66.19
2017-08-22T04:51:06.624Z,67.58
2017-08-22T04:53:34.034Z,68.13
2017-08-22T04:56:01.431Z,67.98
2017-08-22T04:58:28.840Z,68.51
2017-08-22T05:00:56.230Z,68.39
2017-08-22T05:03:23.618Z,68.50
2017-08-22T05:05:51.071Z,68.09
2017-08-22T05:08:18.450Z,67.40
2017-08-22T05:10:45.859Z,67.52
2017-08-22T05:13:13.277Z,69.73
2017-08-22T05:15:40.670Z,68.23
2017-08-22T05:18:08.087Z,69.96
2017-08-22T05:20:35.475Z,68.84
2017-08-22T05:23:02.897Z,69.07
2017-08-22T05:25:30.286Z,69.33
2017-08-22T05:27:57.921Z,69.04
2017-08-22T05:30:25.306Z,69.38
2017-08-22T05:32:52.710Z,69.33
2017-08-22T05:35:20.102Z,69.29
2017-08-22T05:37:47.512Z,69.35
2017-08-22T05:40:14.898Z,69.39
2017-08-22T05:42:42.294Z,69.76
2017-08-22T05:45:09.686Z,69.46
2017-08-22T05:47:37.078Z,69.27
2017-08-22T05:50:04.471Z,69.41
2017-08-22T05:52:31.887Z,69.27
2017-08-22T05:54:59.283Z,69.92
2017-08-22T05:57:26.675Z,70.46
2017-08-22T05:59:54.063Z,70.58
2017-08-22T06:02:21.699Z,71.08
2017-08-22T06:04:49.098Z,71.91
2017-08-22T06:07:16.486Z,71.82
2017-08-22T06:09:44.094Z,72.76
2017-08-22T06:12:11.488Z,72.99
2017-08-22T06:14:38.891Z,73.26
2017-08-22T06:17:06.275Z,73.00
2017-08-22T06:19:33.883Z,72.74
2017-08-22T06:22:01.291Z,73.95
2017-08-22T06:24:28.688Z,73.88
2017-08-22T06:26:56.075Z,74.61
2017-08-22T06:29:23.479Z,73.53
2017-08-22T06:31:50.880Z,73.42
2017-08-22T06:34:18.282Z,73.70
2017-08-22T06:36:45.677Z,74.22
2017-08-22T06:39:13.072Z,74.91
2017-08-22T06:41:40.472Z,75.42
2017-08-22T06:44:08.099Z,75.56
2017-08-22T06:46:35.699Z,75.93
2017-08-22T06:49:03.099Z,76.19
2017-08-22T06:51:30.503Z,76.46
2017-08-22T06:53:57.903Z,76.35
2017-08-22T06:56:25.291Z,76.96
2017-08-22T06:58:52.692Z,76.94
2017-08-22T07:01:20.091Z,77.34
2017-08-22T07:03:47.479Z,77.58
2017-08-22T07:06:14.892Z,77.91
2017-08-22T07:08:42.513Z,77.69
2017-08-22T07:11:09.919Z,77.34
2017-08-22T07:13:37.302Z,77.43
2017-08-22T07:16:04.706Z,77.19
2017-08-22T07:18:32.104Z,77.34
2017-08-22T07:20:59.506Z,78.39
2017-08-22T07:23:26.912Z,76.72
2017-08-22T07:25:54.326Z,76.65
2017-08-22T07:28:21.721Z,77.02
2017-08-22T07:30:49.130Z,76.49
2017-08-22T07:33:16.527Z,75.63
2017-08-22T07:35:43.935Z,76.36
2017-08-22T07:38:11.327Z,76.07
2017-08-22T07:40:38.935Z,74.93
2017-08-22T07:43:06.329Z,75.29
2017-08-22T07:45:33.714Z,73.50
2017-08-22T07:48:01.102Z,73.30
2017-08-22T07:50:28.522Z,72.64
2017-08-22T07:52:55.915Z,72.12
2017-08-22T07:55:23.310Z,71.61
2017-08-22T07:57:50.706Z,71.87
2017-08-22T08:00:18.099Z,72.40
2017-08-22T08:02:45.492Z,71.92
2017-08-22T08:05:12.882Z,71.03
2017-08-22T08:07:40.275Z,70.36
2017-08-22T08:10:07.682Z,70.35
2017-08-22T08:12:35.088Z,70.13
2017-08-22T08:15:02.476Z,69.22
2017-08-22T08:17:29.874Z,69.39
2017-08-22T08:19:57.273Z,70.52
2017-08-22T08:22:24.658Z,69.68
2017-08-22T08:24:52.047Z,69.58
2017-08-22T08:27:19.455Z,69.00
2017-08-22T08:29:47.071Z,66.71
2017-08-22T08:32:14.465Z,69.09
2017-08-22T08:34:41.867Z,66.87
2017-08-22T08:37:09.246Z,68.45
2017-08-22T08:39:36.643Z,68.60
2017-08-22T08:42:04.053Z,67.57
2017-08-22T08:44:31.427Z,67.25
2017-08-22T08:46:59.031Z,67.07
2017-08-22T08:49:26.422Z,65.94
2017-08-22T08:51:53.811Z,66.66
2017-08-22T08:54:21.210Z,67.56
2017-08-22T08:56:48.598Z,66.87
2017-08-22T08:59:15.991Z,66.82
2017-08-22T09:01:43.379Z,66.36
2017-08-22T09:04:10.770Z,64.95
2017-08-22T09:06:38.158Z,65.82
2017-08-22T09:09:05.554Z,63.35
2017-08-22T09:11:32.940Z,64.60
2017-08-22T09:14:00.572Z,65.36
2017-08-22T09:16:27.964Z,64.25
2017-08-22T09:18:55.364Z,62.98
2017-08-22T09:21:22.752Z,63.61
2017-08-22T09:23:50.147Z,61.92
2017-08-22T09:26:17.546Z,61.77
2017-08-22T09:28:44.934Z,62.22
2017-08-22T09:31:12.343Z,64.29
2017-08-22T09:33:39.730Z,62.60
2017-08-22T09:36:07.118Z,62.70
2017-08-22T09:38:34.718Z,61.05
2017-08-22T09:41:02.120Z,60.08
2017-08-22T09:43:29.503Z,59.59
2017-08-22T09:45:56.903Z,61.57
2017-08-22T09:48:24.292Z,60.67
2017-08-22T09:50:51.698Z,60.94
2017-08-22T09:53:19.090Z,57.60
2017-08-22T09:55:46.499Z,57.21
2017-08-22T09:58:13.891Z,57.79
2017-08-22T10:00:41.287Z,59.23
2017-08-22T10:03:08.686Z,58.56
2017-08-22T10:05:36.072Z,58.94
2017-08-22T10:08:03.463Z,58.38
2017-08-22T10:10:30.850Z,59.42
2017-08-22T10:12:58.255Z,59.62
2017-08-22T10:15:25.644Z,60.46
2017-08-22T10:17:53.067Z,60.53
2017-08-22T10:20:20.451Z,60.54
2017-08-22T10:22:47.847Z,59.90
2017-08-22T10:25:15.448Z,59.02
2017-08-22T10:27:42.855Z,60.15
2017-08-22T10:30:10.254Z,59.93
2017-08-22T10:32:37.635Z,59.10
2017-08-22T10:35:05.067Z,59.58
2017-08-22T10:37:32.460Z,59.52
2017-08-22T10:40:00.060Z,60.86
2017-08-22T10:42:27.659Z,59.58
2017-08-22T10:44:55.266Z,60.77
2017-08-22T10:47:22.889Z,60.50
2017-08-22T10:49:50.287Z,60.26
2017-08-22T10:52:17.678Z,60.21
2017-08-22T10:54:45.083Z,60.33
2017-08-22T10:57:12.466Z,58.43
2017-08-22T10:59:39.870Z,58.18
2017-08-22T11:02:07.254Z,59.27
2017-08-22T11:04:34.651Z,59.54
2017-08-22T11:07:02.043Z,58.94
2017-08-22T11:09:29.439Z,58.27
2017-08-22T11:11:56.839Z,58.12
2017-08-22T11:14:24.456Z,57.23
2017-08-22T11:16:51.854Z,56.29
2017-08-22T11:19:19.246Z,56.03
2017-08-22T11:21:46.631Z,56.49
2017-08-22T11:24:14.055Z,56.83
2017-08-22T11:26:41.431Z,56.75
2017-08-22T11:29:08.842Z,57.43
2017-08-22T11:31:36.245Z,57.37
2017-08-22T11:34:03.637Z,57.94
2017-08-22T11:36:31.042Z,57.38
2017-08-22T11:38:58.434Z,53.44
2017-08-22T11:41:25.827Z,57.20
2017-08-22T11:43:53.243Z,57.37
2017-08-22T11:46:20.652Z,57.10
2017-08-22T11:48:48.039Z,56.19
2017-08-22T11:51:15.440Z,55.42
2017-08-22T11:53:42.827Z,53.84
2017-08-22T11:56:10.230Z,53.18
2017-08-22T11:58:37.623Z,53.56
2017-08-22T12:01:05.022Z,51.66
2017-08-22T12:03:32.417Z,50.19
2017-08-22T12:06:00.050Z,52.97
2017-08-22T12:08:27.428Z,52.51
2017-08-22T12:10:54.826Z,51.74
2017-08-22T12:13:22.220Z,53.80
2017-08-22T12:15:49.618Z,50.79
2017-08-22T12:18:17.016Z,50.22
2017-08-22T12:20:44.423Z,52.04
2017-08-22T12:23:11.812Z,51.95
2017-08-22T12:25:39.215Z,52.79
2017-08-22T12:28:06.604Z,51.56
2017-08-22T12:30:34.007Z,52.65
2017-08-22T12:33:01.387Z,52.00
2017-08-22T12:35:28.808Z,51.94
2017-08-22T12:37:56.194Z,51.42
2017-08-22T12:40:23.597Z,51.24
2017-08-22T12:42:50.999Z,51.58
2017-08-22T12:45:18.391Z,50.95
2017-08-22T12:47:45.791Z,51.14
2017-08-22T12:50:13.186Z,51.83
2017-08-22T12:52:40.590Z,52.02
2017-08-22T12:55:07.978Z,51.97
2017-08-22T12:57:35.379Z,52.66
2017-08-22T13:00:02.784Z,53.09
2017-08-22T13:02:30.182Z,52.96
2017-08-22T13:04:57.572Z,52.81
2017-08-22T13:07:24.990Z,53.18
2017-08-22T13:09:52.373Z,53.07
2017-08-22T13:12:19.793Z,52.40
2017-08-22T13:14:47.223Z,52.58
2017-08-22T13:17:14.833Z,52.79
2017-08-22T13:19:42.231Z,52.28
2017-08-22T13:22:09.636Z,51.07
2017-08-22T13:24:37.033Z,50.07
2017-08-22T13:27:04.715Z,50.53
2017-08-22T13:29:32.100Z,50.25
2017-08-22T13:31:59.496Z,50.56
2017-08-22T13:34:26.909Z,50.64
2017-08-22T13:36:54.295Z,50.04
2017-08-22T13:39:21.704Z,50.41
2017-08-22T13:41:49.084Z,51.21
2017-08-22T13:44:16.488Z,51.39
2017-08-22T13:46:43.889Z,49.84
2017-08-22T13:49:11.274Z,49.33
2017-08-22T13:51:38.671Z,47.73
2017-08-22T13:54:06.084Z,46.94
2017-08-22T13:56:33.474Z,47.31
2017-08-22T13:59:00.864Z,47.33
2017-08-22T14:01:28.475Z,46.25
2017-08-22T14:03:55.867Z,46.88
2017-08-22T14:06:23.271Z,47.48
2017-08-22T14:08:50.671Z,47.81
2017-08-22T14:11:18.062Z,48.28
2017-08-22T14:13:45.451Z,47.46
2017-08-22T14:16:12.856Z,47.97
2017-08-22T14:18:41.054Z,48.43
2017-08-22T14:21:08.454Z,49.15
2017-08-22T14:23:35.851Z,49.83
2017-08-22T14:26:03.255Z,50.04
2017-08-22T14:28:30.642Z,49.34
2017-08-22T14:30:58.043Z,49.63
2017-08-22T14:33:25.644Z,48.62
2017-08-22T14:35:53.036Z,48.92
2017-08-22T14:38:20.414Z,48.73
2017-08-22T14:40:47.811Z,49.42
2017-08-22T14:43:15.200Z,48.85
2017-08-22T14:45:42.623Z,50.11
2017-08-22T14:48:10.227Z,49.39
2017-08-22T14:50:37.615Z,49.17
2017-08-22T14:53:05.015Z,49.96
2017-08-22T14:55:32.406Z,50.22
2017-08-22T14:57:59.811Z,49.53
2017-08-22T15:00:27.302Z,49.07
2017-08-22T15:02:54.682Z,49.16
2017-08-22T15:05:22.079Z,49.86
2017-08-22T15:07:49.478Z,50.25
2017-08-22T15:10:16.867Z,50.05
2017-08-22T15:12:44.260Z,48.57
2017-08-22T15:15:11.647Z,48.45
2017-08-22T15:17:39.077Z,48.82
2017-08-22T15:20:06.468Z,49.49
2017-08-22T15:22:33.872Z,50.21
2017-08-22T15:25:01.252Z,50.86
2017-08-22T15:27:28.635Z,51.39
2017-08-22T15:29:56.043Z,50.83
2017-08-22T15:32:23.431Z,51.94
2017-08-22T15:34:50.840Z,50.12
2017-08-22T15:37:18.221Z,50.52
2017-08-22T15:39:45.623Z,51.06
2017-08-22T15:42:13.028Z,50.79
2017-08-22T15:44:40.626Z,50.43
2017-08-22T15:47:08.023Z,50.04
2017-08-22T15:49:35.427Z,50.20
2017-08-22T15:52:02.811Z,50.63
2017-08-22T15:54:30.214Z,50.83
2017-08-22T15:56:57.612Z,50.58
2017-08-22T15:59:25.012Z,49.29
2017-08-22T16:01:52.434Z,51.07
2017-08-22T16:04:19.818Z,51.12
2017-08-22T16:06:47.210Z,51.44
2017-08-22T16:09:14.604Z,51.55
2017-08-22T16:11:42.002Z,51.46
2017-08-22T16:14:09.396Z,51.49
2017-08-22T16:16:36.796Z,51.53
2017-08-22T16:19:04.198Z,51.36
2017-08-22T16:21:31.590Z,51.07
2017-08-22T16:23:58.980Z,50.81
2017-08-22T16:26:26.387Z,50.76
2017-08-22T16:28:53.775Z,50.89
2017-08-22T16:31:21.193Z,51.16
2017-08-22T16:33:48.574Z,50.90
2017-08-22T16:36:15.972Z,51.05
2017-08-22T16:38:43.370Z,51.67
2017-08-22T16:41:10.779Z,51.76
2017-08-22T16:43:38.179Z,51.88
2017-08-22T16:46:05.582Z,52.27
2017-08-22T16:48:32.970Z,51.87
2017-08-22T16:51:00.388Z,52.06
2017-08-22T16:53:27.779Z,52.59
2017-08-22T16:55:55.183Z,52.70
2017-08-22T16:58:22.574Z,52.92
2017-08-22T17:00:49.979Z,53.03
2017-08-22T17:03:17.374Z,52.92
2017-08-22T17:05:44.759Z,53.05
2017-08-22T17:08:12.166Z,53.59
2017-08-22T17:10:39.551Z,53.63
2017-08-22T17:13:06.947Z,53.49
2017-08-22T17:15:34.344Z,53.07
2017-08-22T17:18:01.757Z,53.53
2017-08-22T17:20:29.158Z,53.66
2017-08-22T17:22:56.554Z,53.39
2017-08-22T17:25:23.945Z,53.55
2017-08-22T17:27:51.340Z,53.27
2017-08-22T17:30:18.950Z,52.96
2017-08-22T17:32:46.446Z,53.21
2017-08-22T17:35:13.834Z,53.23
2017-08-22T17:37:41.220Z,53.53
2017-08-22T17:40:08.616Z,53.68
2017-08-22T17:42:36.002Z,53.94
2017-08-22T17:45:03.390Z,54.20
2017-08-22T17:47:30.783Z,54.66
2017-08-22T17:49:58.183Z,54.95
2017-08-22T17:52:25.602Z,55.53
2017-08-22T17:54:53.212Z,55.54
2017-08-22T17:57:20.603Z,55.54
2017-08-22T17:59:48.006Z,55.68
2017-08-22T18:02:15.423Z,55.49
2017-08-22T18:04:42.825Z,55.68
2017-08-22T18:07:10.221Z,55.76
2017-08-22T18:09:37.604Z,55.60
2017-08-22T18:12:05.011Z,55.44
2017-08-22T18:14:32.399Z,55.46
2017-08-22T18:16:59.803Z,55.61
2017-08-22T18:19:27.193Z,55.61
2017-08-22T18:21:54.591Z,56.11
2017-08-22T18:24:21.985Z,56.31
2017-08-22T18:26:49.406Z,56.50
2017-08-22T18:29:17.026Z,56.42
2017-08-22T18:31:44.626Z,56.13
2017-08-22T18:34:12.030Z,55.78
2017-08-22T18:36:39.423Z,55.74
2017-08-22T18:39:06.823Z,55.48
2017-08-22T18:41:34.227Z,55.38
2017-08-22T18:44:01.615Z,55.84
2017-08-22T18:46:29.010Z,55.96
2017-08-22T18:48:56.394Z,56.08
2017-08-22T18:51:23.795Z,56.25
2017-08-22T18:53:51.189Z,56.30
2017-08-22T18:56:20.087Z,56.15
2017-08-22T18:58:47.498Z,56.00
2017-08-22T19:01:17.582Z,56.02
2017-08-22T19:03:44.990Z,55.89
2017-08-22T19:06:12.380Z,55.88
2017-08-22T19:08:39.779Z,55.97
2017-08-22T19:11:07.166Z,56.01
2017-08-22T19:13:34.568Z,56.48
2017-08-22T19:16:01.963Z,56.45
2017-08-22T19:18:35.593Z,56.86
2017-08-22T19:21:03.194Z,56.65
2017-08-22T19:23:30.809Z,56.49
2017-08-22T19:25:58.218Z,56.60
2017-08-22T19:28:25.635Z,56.67
2017-08-22T19:30:53.011Z,57.25
2017-08-22T19:33:20.411Z,57.38
2017-08-22T19:35:47.799Z,57.73
2017-08-22T19:38:15.187Z,57.86
2017-08-22T19:40:43.616Z,58.02
2017-08-22T19:43:16.294Z,58.05
2017-08-22T19:45:43.686Z,57.88
2017-08-22T19:48:11.079Z,57.98
2017-08-22T19:50:38.476Z,58.00
2017-08-22T19:53:05.868Z,58.08
2017-08-22T19:55:33.301Z,58.24
2017-08-22T19:58:00.699Z,58.63
2017-08-22T20:00:28.107Z,58.79
2017-08-22T20:02:55.530Z,59.12
2017-08-22T20:05:22.911Z,58.68
2017-08-22T20:07:50.296Z,58.50
2017-08-22T20:10:17.703Z,58.97
2017-08-22T20:12:45.083Z,58.72
2017-08-22T20:15:12.479Z,58.80
2017-08-22T20:17:40.136Z,58.77
2017-08-22T20:20:07.543Z,59.20
2017-08-22T20:22:36.283Z,59.17
2017-08-22T20:25:07.176Z,58.52
2017-08-22T20:27:34.574Z,59.00
2017-08-22T20:30:04.182Z,58.73
2017-08-22T20:32:33.004Z,59.40
2017-08-22T20:35:02.162Z,59.44
2017-08-22T20:37:29.597Z,59.32
2017-08-22T20:39:56.974Z,59.34
2017-08-22T20:42:24.430Z,59.39
2017-08-22T20:44:51.833Z,59.67
2017-08-22T20:47:19.235Z,59.82
2017-08-22T20:49:46.617Z,59.83
2017-08-22T20:52:14.022Z,59.86
2017-08-22T20:54:41.411Z,59.95
2017-08-22T20:57:09.629Z,59.89
2017-08-22T20:59:37.007Z,59.72
2017-08-22T21:02:04.403Z,59.55
2017-08-22T21:04:31.805Z,59.58
2017-08-22T21:06:59.207Z,59.40
2017-08-22T21:09:26.595Z,59.70
2017-08-22T21:11:53.998Z,59.78
2017-08-22T21:14:21.391Z,60.05
2017-08-22T21:16:48.795Z,59.77
2017-08-22T21:19:16.182Z,59.61
2017-08-22T21:21:43.579Z,59.92
2017-08-22T21:24:10.979Z,59.29
2017-08-22T21:26:38.362Z,59.11
2017-08-22T21:29:05.772Z,58.90
2017-08-22T21:31:33.171Z,58.78
2017-08-22T21:34:00.568Z,59.33
2017-08-22T21:36:28.001Z,59.11
2017-08-22T21:38:55.394Z,59.05
2017-08-22T21:41:22.790Z,59.05
2017-08-22T21:43:50.440Z,59.25
2017-08-22T21:46:17.830Z,59.17
2017-08-22T21:48:45.219Z,58.96
2017-08-22T21:51:12.608Z,58.90
2017-08-22T21:53:40.005Z,59.16
2017-08-22T21:56:07.383Z,59.05
2017-08-22T21:58:34.783Z,59.29
2017-08-22T22:01:02.162Z,59.36
2017-08-22T22:03:29.571Z,59.97
2017-08-22T22:05:56.972Z,60.45
2017-08-22T22:08:24.354Z,60.91
2017-08-22T22:10:51.758Z,60.88
2017-08-22T22:13:19.154Z,61.25
2017-08-22T22:15:46.559Z,62.06
2017-08-22T22:18:13.947Z,62.33
2017-08-22T22:20:41.356Z,62.27
2017-08-22T22:23:08.764Z,62.43
2017-08-22T22:25:36.147Z,62.08
2017-08-22T22:28:03.546Z,61.95
2017-08-22T22:30:30.948Z,62.12
2017-08-22T22:32:58.652Z,61.56
2017-08-22T22:35:26.050Z,61.05
2017-08-22T22:37:53.449Z,60.79
2017-08-22T22:40:20.849Z,60.67
2017-08-22T22:42:48.247Z,60.73
2017-08-22T22:45:15.638Z,61.04
2017-08-22T22:47:43.031Z,60.35
2017-08-22T22:50:10.426Z,60.46
2017-08-22T22:52:37.823Z,60.63
2017-08-22T22:55:05.214Z,60.34
2017-08-22T22:57:32.614Z,60.39
2017-08-22T23:00:00.004Z,60.12
2017-08-22T23:02:27.407Z,59.91
2017-08-22T23:04:55.074Z,60.58
2017-08-22T23:07:22.471Z,61.16
2017-08-22T23:09:50.091Z,61.27
2017-08-22T23:12:17.498Z,61.33
2017-08-22T23:14:44.884Z,61.44
2017-08-22T23:17:12.291Z,60.36
2017-08-22T23:19:39.671Z,60.42
2017-08-22T23:22:07.067Z,60.81
2017-08-22T23:24:34.456Z,61.81
2017-08-22T23:27:01.858Z,62.52
2017-08-22T23:29:29.252Z,61.66
2017-08-22T23:31:56.661Z,61.37
2017-08-22T23:34:24.355Z,61.71
2017-08-22T23:36:51.759Z,61.63
2017-08-22T23:39:19.155Z,61.60
2017-08-22T23:41:46.548Z,62.07
2017-08-22T23:44:13.947Z,62.35
2017-08-22T23:46:41.336Z,62.30
2017-08-22T23:49:08.730Z,63.08
2017-08-22T23:51:36.115Z,63.20
2017-08-22T23:54:03.519Z,63.38
2017-08-22T23:56:30.919Z,62.60
2017-08-22T23:58:58.318Z,62.26
